createdAt,value
2018-08-19T00:00:00.940Z,0.00
2018-08-19T00:01:00.924Z,0.00
2018-08-19T00:02:00.892Z,0.00
2018-08-19T00:03:00.879Z,0.00
2018-08-19T00:04:00.866Z,0.00
2018-08-19T00:05:00.853Z,0.00
2018-08-19T00:06:00.852Z,0.00
2018-08-19T00:07:00.825Z,0.00
2018-08-19T00:08:00.815Z,0.00
2018-08-19T00:09:00.797Z,0.00
2018-08-19T00:10:00.780Z,0.00
2018-08-19T00:11:00.784Z,0.00
2018-08-19T00:12:00.756Z,0.00
2018-08-19T00:13:00.741Z,0.00
2018-08-19T00:14:00.750Z,0.00
2018-08-19T00:15:00.710Z,0.00
2018-08-19T00:16:00.700Z,0.00
2018-08-19T00:17:00.676Z,0.00
2018-08-19T00:18:00.668Z,0.00
2018-08-19T00:19:00.678Z,0.00
2018-08-19T00:20:00.640Z,0.00
2018-08-19T00:21:00.625Z,0.00
2018-08-19T00:22:00.624Z,0.00
2018-08-19T00:23:00.592Z,0.00
2018-08-19T00:24:00.578Z,0.00
2018-08-19T00:25:00.566Z,0.00
2018-08-19T00:26:00.566Z,0.00
2018-08-19T00:27:00.538Z,0.00
2018-08-19T00:28:00.525Z,0.00
2018-08-19T00:29:00.510Z,0.00
2018-08-19T00:30:00.497Z,0.00
2018-08-19T00:31:00.498Z,0.00
2018-08-19T00:32:00.473Z,0.00
2018-08-19T00:33:00.453Z,0.00
2018-08-19T00:34:00.436Z,0.00
2018-08-19T00:35:00.422Z,0.00
2018-08-19T00:36:00.410Z,0.00
2018-08-19T00:37:00.459Z,0.00
2018-08-19T00:38:00.393Z,0.00
2018-08-19T00:39:00.362Z,0.00
2018-08-19T00:40:01.000Z,0.00
2018-08-19T00:41:00.346Z,0.00
2018-08-19T00:42:00.325Z,0.00
2018-08-19T00:43:00.305Z,0.00
2018-08-19T00:44:00.311Z,0.00
2018-08-19T00:45:00.281Z,0.00
2018-08-19T00:46:00.262Z,0.00
2018-08-19T00:47:00.252Z,0.00
2018-08-19T00:48:00.236Z,0.00
2018-08-19T00:49:00.235Z,0.00
2018-08-19T00:50:00.207Z,0.00
2018-08-19T00:51:00.195Z,0.00
2018-08-19T00:52:00.181Z,0.00
2018-08-19T00:53:00.159Z,0.00
2018-08-19T00:54:00.163Z,0.00
2018-08-19T00:55:00.136Z,0.00
2018-08-19T00:56:00.120Z,0.00
2018-08-19T00:57:00.107Z,0.00
2018-08-19T00:58:00.091Z,0.00
2018-08-19T00:59:00.092Z,0.00
2018-08-19T01:00:00.065Z,0.00
2018-08-19T01:01:00.051Z,0.00
2018-08-19T01:02:00.031Z,0.00
2018-08-19T01:03:00.021Z,0.00
2018-08-19T01:04:00.018Z,0.00
2018-08-19T01:04:59.992Z,0.00
2018-08-19T01:05:59.979Z,0.00
2018-08-19T01:06:59.961Z,0.00
2018-08-19T01:07:59.947Z,0.00
2018-08-19T01:08:59.948Z,0.00
2018-08-19T01:09:59.918Z,0.00
2018-08-19T01:10:59.907Z,0.00
2018-08-19T01:11:59.886Z,0.00
2018-08-19T01:12:59.873Z,0.00
2018-08-19T01:13:59.854Z,0.00
2018-08-19T01:14:59.854Z,0.00
2018-08-19T01:15:59.845Z,0.00
2018-08-19T01:16:59.814Z,0.00
2018-08-19T01:17:59.798Z,0.00
2018-08-19T01:18:59.789Z,0.00
2018-08-19T01:19:59.775Z,0.00
2018-08-19T01:20:59.773Z,0.00
2018-08-19T01:21:59.743Z,0.00
2018-08-19T01:22:59.730Z,0.00
2018-08-19T01:23:59.714Z,0.00
2018-08-19T01:24:59.701Z,0.00
2018-08-19T01:25:59.704Z,0.00
2018-08-19T01:26:59.670Z,0.00
2018-08-19T01:27:59.657Z,0.00
2018-08-19T01:28:59.642Z,0.00
2018-08-19T01:29:59.626Z,0.00
2018-08-19T01:30:59.615Z,0.00
2018-08-19T01:31:59.615Z,0.00
2018-08-19T01:32:59.585Z,0.00
2018-08-19T01:33:59.568Z,0.00
2018-08-19T01:34:59.570Z,0.00
2018-08-19T01:35:59.540Z,0.00
2018-08-19T01:36:59.539Z,0.00
2018-08-19T01:37:59.511Z,0.00
2018-08-19T01:38:59.497Z,0.00
2018-08-19T01:39:59.484Z,0.00
2018-08-19T01:40:59.470Z,0.00
2018-08-19T01:41:59.468Z,0.00
2018-08-19T01:42:59.450Z,0.00
2018-08-19T01:43:59.422Z,0.00
2018-08-19T01:44:59.406Z,0.00
2018-08-19T01:45:59.395Z,0.00
2018-08-19T01:46:59.379Z,0.00
2018-08-19T01:47:59.380Z,0.00
2018-08-19T01:48:59.368Z,0.00
2018-08-19T01:49:59.337Z,0.00
2018-08-19T01:50:59.338Z,0.00
2018-08-19T01:51:59.306Z,0.00
2018-08-19T01:52:59.296Z,0.00
2018-08-19T01:53:59.291Z,0.00
2018-08-19T01:54:59.266Z,0.00
2018-08-19T01:55:59.251Z,0.00
2018-08-19T01:56:59.236Z,0.00
2018-08-19T01:57:59.225Z,0.00
2018-08-19T01:58:59.236Z,0.00
2018-08-19T01:59:59.193Z,0.00
2018-08-19T02:00:59.183Z,0.00
2018-08-19T02:01:59.164Z,0.00
2018-08-19T02:02:59.152Z,0.00
2018-08-19T02:03:59.133Z,0.00
2018-08-19T02:05:20.130Z,0.00
2018-08-19T02:05:59.105Z,0.00
2018-08-19T02:06:59.093Z,0.00
2018-08-19T02:07:59.082Z,0.00
2018-08-19T02:08:59.061Z,0.00
2018-08-19T02:09:59.062Z,0.00
2018-08-19T02:10:59.033Z,0.00
2018-08-19T02:11:59.018Z,0.00
2018-08-19T02:12:59.001Z,0.00
2018-08-19T02:13:58.988Z,0.00
2018-08-19T02:14:58.975Z,0.00
2018-08-19T02:15:58.975Z,0.00
2018-08-19T02:16:58.942Z,0.00
2018-08-19T02:17:58.930Z,0.00
2018-08-19T02:18:58.914Z,0.00
2018-08-19T02:19:58.901Z,0.00
2018-08-19T02:20:58.897Z,0.00
2018-08-19T02:21:58.871Z,0.00
2018-08-19T02:22:58.858Z,0.00
2018-08-19T02:23:58.838Z,0.00
2018-08-19T02:24:58.827Z,0.00
2018-08-19T02:25:58.825Z,0.00
2018-08-19T02:26:58.793Z,0.00
2018-08-19T02:27:58.782Z,0.00
2018-08-19T02:28:58.784Z,0.00
2018-08-19T02:29:58.766Z,0.00
2018-08-19T02:30:58.753Z,0.00
2018-08-19T02:31:58.727Z,0.00
2018-08-19T02:32:58.707Z,0.00
2018-08-19T02:33:58.710Z,0.00
2018-08-19T02:34:58.678Z,0.00
2018-08-19T02:35:58.678Z,0.00
2018-08-19T02:36:58.652Z,0.00
2018-08-19T02:37:58.634Z,0.00
2018-08-19T02:38:58.633Z,0.00
2018-08-19T02:39:58.605Z,0.00
2018-08-19T02:40:58.607Z,0.00
2018-08-19T02:41:58.572Z,0.00
2018-08-19T02:42:58.562Z,0.00
2018-08-19T02:43:58.560Z,0.00
2018-08-19T02:44:58.528Z,0.00
2018-08-19T02:45:58.517Z,0.00
2018-08-19T02:46:58.507Z,0.00
2018-08-19T02:47:58.485Z,0.00
2018-08-19T02:48:58.484Z,0.00
2018-08-19T02:49:58.460Z,0.00
2018-08-19T02:50:58.435Z,0.00
2018-08-19T02:51:58.425Z,0.00
2018-08-19T02:52:58.412Z,0.00
2018-08-19T02:53:58.409Z,0.00
2018-08-19T02:54:58.382Z,0.00
2018-08-19T02:55:58.380Z,0.00
2018-08-19T02:56:58.352Z,0.00
2018-08-19T02:57:58.337Z,0.00
2018-08-19T02:58:58.319Z,0.00
2018-08-19T02:59:58.301Z,0.00
2018-08-19T03:00:58.301Z,0.00
2018-08-19T03:01:58.275Z,0.00
2018-08-19T03:02:58.262Z,0.00
2018-08-19T03:03:58.246Z,0.00
2018-08-19T03:04:58.228Z,0.00
2018-08-19T03:05:58.227Z,0.00
2018-08-19T03:06:58.200Z,0.00
2018-08-19T03:07:58.185Z,0.00
2018-08-19T03:08:58.167Z,0.00
2018-08-19T03:09:58.155Z,0.00
2018-08-19T03:10:58.150Z,0.00
2018-08-19T03:11:58.122Z,0.00
2018-08-19T03:12:58.105Z,0.00
2018-08-19T03:13:58.092Z,0.00
2018-08-19T03:14:58.111Z,0.00
2018-08-19T03:15:58.082Z,0.00
2018-08-19T03:16:58.051Z,0.00
2018-08-19T03:17:58.051Z,0.00
2018-08-19T03:18:58.018Z,0.00
2018-08-19T03:19:57.999Z,0.00
2018-08-19T03:20:57.985Z,0.00
2018-08-19T03:21:57.984Z,0.00
2018-08-19T03:22:57.958Z,0.00
2018-08-19T03:23:57.958Z,0.00
2018-08-19T03:24:57.928Z,0.00
2018-08-19T03:25:57.915Z,0.00
2018-08-19T03:26:57.899Z,0.00
2018-08-19T03:27:57.899Z,0.00
2018-08-19T03:28:57.866Z,0.00
2018-08-19T03:29:57.852Z,0.00
2018-08-19T03:30:57.837Z,0.00
2018-08-19T03:31:57.836Z,0.00
2018-08-19T03:32:57.809Z,0.00
2018-08-19T03:33:57.799Z,0.00
2018-08-19T03:34:57.794Z,0.00
2018-08-19T03:35:57.762Z,0.00
2018-08-19T03:36:57.761Z,0.00
2018-08-19T03:37:57.851Z,0.00
2018-08-19T03:38:57.717Z,0.00
2018-08-19T03:39:57.704Z,0.00
2018-08-19T03:40:57.685Z,0.00
2018-08-19T03:41:57.669Z,0.00
2018-08-19T03:42:57.674Z,0.00
2018-08-19T03:43:57.654Z,0.00
2018-08-19T03:44:57.623Z,0.00
2018-08-19T03:45:57.611Z,0.00
2018-08-19T03:46:57.595Z,0.00
2018-08-19T03:47:57.580Z,0.00
2018-08-19T03:48:57.581Z,0.00
2018-08-19T03:49:57.564Z,0.00
2018-08-19T03:50:57.532Z,0.00
2018-08-19T03:51:57.515Z,0.00
2018-08-19T03:52:57.498Z,0.00
2018-08-19T03:53:57.483Z,0.00
2018-08-19T03:54:57.484Z,0.00
2018-08-19T03:55:57.467Z,0.00
2018-08-19T03:56:57.443Z,0.00
2018-08-19T03:57:57.429Z,0.00
2018-08-19T03:58:57.412Z,0.00
2018-08-19T03:59:57.412Z,0.00
2018-08-19T04:00:57.384Z,0.00
2018-08-19T04:01:57.362Z,0.00
2018-08-19T04:02:57.352Z,0.00
2018-08-19T04:03:57.337Z,0.00
2018-08-19T04:04:57.334Z,0.00
2018-08-19T04:05:57.307Z,0.00
2018-08-19T04:06:57.289Z,0.00
2018-08-19T04:07:57.271Z,0.00
2018-08-19T04:08:57.259Z,0.00
2018-08-19T04:09:57.259Z,0.00
2018-08-19T04:10:57.231Z,4.00
2018-08-19T04:11:57.212Z,4.00
2018-08-19T04:12:57.196Z,0.00
2018-08-19T04:13:57.201Z,0.00
2018-08-19T04:14:57.167Z,4.00
2018-08-19T04:15:57.151Z,4.00
2018-08-19T04:16:57.134Z,4.00
2018-08-19T04:17:57.123Z,4.00
2018-08-19T04:18:57.105Z,4.00
2018-08-19T04:19:57.109Z,8.00
2018-08-19T04:20:57.072Z,8.00
2018-08-19T04:21:57.061Z,8.00
2018-08-19T04:22:57.046Z,8.00
2018-08-19T04:23:57.033Z,12.00
2018-08-19T04:24:57.028Z,8.00
2018-08-19T04:25:56.993Z,12.00
2018-08-19T04:26:56.986Z,12.00
2018-08-19T04:27:56.982Z,16.00
2018-08-19T04:28:56.949Z,16.00
2018-08-19T04:29:56.933Z,16.00
2018-08-19T04:30:56.920Z,16.00
2018-08-19T04:31:56.907Z,16.00
2018-08-19T04:32:56.887Z,20.00
2018-08-19T04:33:56.887Z,20.00
2018-08-19T04:34:56.856Z,24.00
2018-08-19T04:35:56.842Z,28.00
2018-08-19T04:36:56.826Z,28.00
2018-08-19T04:37:56.808Z,28.00
2018-08-19T04:38:56.812Z,32.00
2018-08-19T04:39:56.781Z,32.00
2018-08-19T04:40:56.767Z,36.00
2018-08-19T04:41:56.749Z,40.00
2018-08-19T04:42:56.730Z,40.00
2018-08-19T04:43:56.734Z,44.00
2018-08-19T04:44:56.702Z,44.00
2018-08-19T04:45:56.688Z,48.00
2018-08-19T04:46:56.673Z,48.00
2018-08-19T04:47:56.656Z,48.00
2018-08-19T04:48:56.640Z,52.00
2018-08-19T04:49:56.641Z,56.00
2018-08-19T04:50:56.610Z,56.00
2018-08-19T04:51:56.613Z,60.00
2018-08-19T04:52:56.579Z,60.00
2018-08-19T04:53:56.564Z,64.00
2018-08-19T04:54:56.552Z,68.00
2018-08-19T04:55:56.533Z,68.00
2018-08-19T04:56:56.516Z,72.00
2018-08-19T04:57:56.517Z,68.00
2018-08-19T04:58:56.487Z,76.00
2018-08-19T04:59:56.473Z,76.00
2018-08-19T05:00:56.459Z,80.00
2018-08-19T05:01:56.457Z,80.00
2018-08-19T05:02:56.428Z,84.00
2018-08-19T05:03:56.412Z,84.00
2018-08-19T05:04:56.397Z,88.00
2018-08-19T05:05:56.395Z,92.00
2018-08-19T05:06:56.380Z,92.00
2018-08-19T05:07:56.402Z,96.00
2018-08-19T05:08:56.338Z,100.00
2018-08-19T05:09:56.319Z,100.00
2018-08-19T05:10:56.303Z,108.00
2018-08-19T05:11:56.306Z,108.00
2018-08-19T05:12:56.272Z,108.00
2018-08-19T05:13:56.258Z,112.00
2018-08-19T05:14:56.245Z,116.00
2018-08-19T05:15:56.224Z,116.00
2018-08-19T05:16:56.213Z,116.00
2018-08-19T05:17:56.211Z,124.00
2018-08-19T05:18:56.181Z,124.00
2018-08-19T05:19:56.165Z,132.00
2018-08-19T05:20:56.150Z,132.00
2018-08-19T05:21:56.131Z,136.00
2018-08-19T05:22:56.132Z,136.00
2018-08-19T05:23:56.108Z,136.00
2018-08-19T05:24:56.088Z,144.00
2018-08-19T05:25:56.075Z,144.00
2018-08-19T05:26:56.061Z,148.00
2018-08-19T05:27:56.054Z,148.00
2018-08-19T05:28:56.047Z,152.00
2018-08-19T05:29:56.012Z,156.00
2018-08-19T05:30:55.996Z,160.00
2018-08-19T05:31:55.989Z,160.00
2018-08-19T05:32:55.967Z,164.00
2018-08-19T05:33:55.961Z,168.00
2018-08-19T05:34:55.936Z,172.00
2018-08-19T05:35:55.921Z,176.00
2018-08-19T05:36:55.906Z,180.00
2018-08-19T05:37:55.902Z,180.00
2018-08-19T05:38:55.890Z,184.00
2018-08-19T05:39:55.861Z,180.00
2018-08-19T05:40:55.848Z,184.00
2018-08-19T05:41:55.830Z,184.00
2018-08-19T05:42:55.812Z,192.00
2018-08-19T05:43:55.820Z,196.00
2018-08-19T05:44:55.789Z,204.00
2018-08-19T05:45:55.769Z,204.00
2018-08-19T05:46:55.752Z,196.00
2018-08-19T05:47:55.741Z,200.00
2018-08-19T05:48:55.740Z,200.00
2018-08-19T05:49:55.709Z,200.00
2018-08-19T05:50:55.709Z,204.00
2018-08-19T05:51:55.683Z,204.00
2018-08-19T05:52:55.665Z,204.00
2018-08-19T05:53:55.661Z,208.00
2018-08-19T05:54:55.654Z,208.00
2018-08-19T05:55:55.621Z,208.00
2018-08-19T05:56:55.606Z,208.00
2018-08-19T05:57:55.591Z,212.00
2018-08-19T05:58:55.589Z,216.00
2018-08-19T05:59:55.561Z,220.00
2018-08-19T06:00:55.561Z,220.00
2018-08-19T06:01:55.529Z,220.00
2018-08-19T06:02:55.515Z,220.00
2018-08-19T06:03:55.503Z,224.00
2018-08-19T06:04:55.484Z,224.00
2018-08-19T06:05:55.489Z,228.00
2018-08-19T06:06:55.455Z,232.00
2018-08-19T06:07:55.447Z,232.00
2018-08-19T06:08:55.427Z,236.00
2018-08-19T06:09:55.416Z,240.00
2018-08-19T06:10:55.412Z,240.00
2018-08-19T06:11:55.385Z,240.00
2018-08-19T06:12:55.368Z,244.00
2018-08-19T06:13:55.358Z,252.00
2018-08-19T06:14:55.339Z,256.00
2018-08-19T06:15:55.445Z,260.00
2018-08-19T06:16:55.310Z,264.00
2018-08-19T06:17:55.293Z,268.00
2018-08-19T06:18:55.289Z,276.00
2018-08-19T06:19:55.269Z,288.00
2018-08-19T06:20:55.271Z,308.00
2018-08-19T06:21:55.296Z,348.00
2018-08-19T06:22:55.224Z,412.00
2018-08-19T06:23:55.210Z,456.00
2018-08-19T06:24:55.194Z,500.00
2018-08-19T06:25:55.196Z,516.00
2018-08-19T06:26:55.164Z,512.00
2018-08-19T06:27:55.150Z,492.00
2018-08-19T06:28:55.135Z,488.00
2018-08-19T06:29:55.117Z,520.00
2018-08-19T06:30:55.121Z,556.00
2018-08-19T06:31:55.089Z,572.00
2018-08-19T06:32:55.076Z,552.00
2018-08-19T06:33:55.063Z,540.00
2018-08-19T06:34:55.179Z,540.00
2018-08-19T06:35:55.057Z,532.00
2018-08-19T06:36:55.023Z,532.00
2018-08-19T06:37:55.010Z,532.00
2018-08-19T06:38:54.999Z,548.00
2018-08-19T06:39:54.978Z,564.00
2018-08-19T06:40:54.985Z,580.00
2018-08-19T06:41:54.970Z,608.00
2018-08-19T06:42:54.963Z,580.00
2018-08-19T06:43:54.926Z,584.00
2018-08-19T06:44:54.909Z,596.00
2018-08-19T06:45:54.901Z,612.00
2018-08-19T06:46:54.882Z,616.00
2018-08-19T06:47:54.872Z,604.00
2018-08-19T06:48:54.866Z,620.00
2018-08-19T06:49:54.843Z,632.00
2018-08-19T06:50:54.830Z,624.00
2018-08-19T06:51:54.818Z,632.00
2018-08-19T06:52:54.826Z,636.00
2018-08-19T06:53:54.803Z,636.00
2018-08-19T06:54:54.775Z,660.00
2018-08-19T06:55:54.760Z,676.00
2018-08-19T06:56:54.750Z,680.00
2018-08-19T06:57:54.734Z,652.00
2018-08-19T06:58:54.735Z,676.00
2018-08-19T06:59:54.705Z,684.00
2018-08-19T07:00:54.692Z,660.00
2018-08-19T07:01:54.674Z,708.00
2018-08-19T07:02:54.684Z,696.00
2018-08-19T07:04:15.663Z,736.00
2018-08-19T07:04:54.639Z,756.00
2018-08-19T07:05:54.626Z,768.00
2018-08-19T07:06:54.613Z,764.00
2018-08-19T07:07:54.594Z,752.00
2018-08-19T07:08:54.600Z,740.00
2018-08-19T07:09:54.569Z,756.00
2018-08-19T07:10:54.553Z,788.00
2018-08-19T07:11:54.544Z,824.00
2018-08-19T07:12:54.538Z,820.00
2018-08-19T07:13:54.518Z,820.00
2018-08-19T07:14:54.517Z,824.00
2018-08-19T07:15:54.489Z,820.00
2018-08-19T07:16:54.479Z,800.00
2018-08-19T07:17:54.464Z,820.00
2018-08-19T07:18:54.466Z,820.00
2018-08-19T07:19:54.437Z,848.00
2018-08-19T07:20:54.435Z,880.00
2018-08-19T07:21:54.411Z,908.00
2018-08-19T07:22:54.397Z,920.00
2018-08-19T07:23:54.443Z,936.00
2018-08-19T07:24:54.385Z,916.00
2018-08-19T07:25:54.356Z,956.00
2018-08-19T07:26:54.344Z,988.00
2018-08-19T07:27:54.333Z,948.00
2018-08-19T07:28:54.313Z,992.00
2018-08-19T07:29:54.332Z,1028.00
2018-08-19T07:30:54.291Z,996.00
2018-08-19T07:31:54.278Z,968.00
2018-08-19T07:32:54.267Z,968.00
2018-08-19T07:33:54.251Z,980.00
2018-08-19T07:34:54.240Z,1008.00
2018-08-19T07:35:54.243Z,992.00
2018-08-19T07:36:54.230Z,1016.00
2018-08-19T07:37:54.200Z,1056.00
2018-08-19T07:38:54.203Z,1028.00
2018-08-19T07:39:54.175Z,1084.00
2018-08-19T07:40:54.159Z,1076.00
2018-08-19T07:41:54.147Z,1112.00
2018-08-19T07:42:54.151Z,1104.00
2018-08-19T07:43:54.136Z,1080.00
2018-08-19T07:44:54.106Z,1104.00
2018-08-19T07:45:54.093Z,1176.00
2018-08-19T07:46:54.083Z,1160.00
2018-08-19T07:47:54.071Z,1156.00
2018-08-19T07:48:54.064Z,1124.00
2018-08-19T07:49:54.042Z,1228.00
2018-08-19T07:50:54.030Z,1164.00
2018-08-19T07:51:54.020Z,1040.00
2018-08-19T07:52:54.004Z,772.00
2018-08-19T07:53:54.005Z,640.00
2018-08-19T07:54:53.978Z,564.00
2018-08-19T07:55:53.969Z,556.00
2018-08-19T07:56:53.954Z,576.00
2018-08-19T07:57:53.957Z,588.00
2018-08-19T07:58:53.941Z,588.00
2018-08-19T07:59:53.916Z,592.00
2018-08-19T08:00:53.900Z,600.00
2018-08-19T08:01:53.890Z,596.00
2018-08-19T08:02:53.889Z,620.00
2018-08-19T08:03:53.865Z,620.00
2018-08-19T08:04:53.847Z,620.00
2018-08-19T08:05:53.839Z,644.00
2018-08-19T08:06:53.823Z,660.00
2018-08-19T08:07:53.807Z,644.00
2018-08-19T08:08:53.816Z,652.00
2018-08-19T08:09:53.792Z,652.00
2018-08-19T08:10:53.783Z,664.00
2018-08-19T08:11:53.755Z,656.00
2018-08-19T08:12:53.745Z,672.00
2018-08-19T08:13:53.785Z,668.00
2018-08-19T08:14:53.735Z,672.00
2018-08-19T08:15:53.721Z,680.00
2018-08-19T08:16:53.694Z,688.00
2018-08-19T08:17:53.681Z,676.00
2018-08-19T08:18:53.678Z,684.00
2018-08-19T08:19:53.657Z,688.00
2018-08-19T08:20:53.655Z,720.00
2018-08-19T08:21:53.628Z,724.00
2018-08-19T08:22:53.617Z,756.00
2018-08-19T08:23:53.606Z,776.00
2018-08-19T08:24:53.591Z,804.00
2018-08-19T08:25:53.598Z,832.00
2018-08-19T08:26:53.563Z,820.00
2018-08-19T08:27:53.576Z,844.00
2018-08-19T08:28:53.539Z,928.00
2018-08-19T08:29:53.525Z,1148.00
2018-08-19T08:30:53.510Z,1120.00
2018-08-19T08:31:53.514Z,936.00
2018-08-19T08:32:53.490Z,1108.00
2018-08-19T08:33:53.475Z,1152.00
2018-08-19T08:34:53.509Z,1192.00
2018-08-19T08:35:53.462Z,1340.00
2018-08-19T08:36:53.452Z,1424.00
2018-08-19T08:37:53.423Z,1580.00
2018-08-19T08:38:53.427Z,1604.00
2018-08-19T08:39:53.397Z,1532.00
2018-08-19T08:40:53.384Z,1700.00
2018-08-19T08:41:53.377Z,1704.00
2018-08-19T08:43:14.377Z,1724.00
2018-08-19T08:43:53.352Z,1580.00
2018-08-19T08:44:53.341Z,1316.00
2018-08-19T08:45:53.325Z,1344.00
2018-08-19T08:46:53.315Z,1624.00
2018-08-19T08:47:53.329Z,1884.00
2018-08-19T08:48:53.316Z,1976.00
2018-08-19T08:49:53.277Z,1652.00
2018-08-19T08:50:53.270Z,1432.00
2018-08-19T08:51:53.256Z,1320.00
2018-08-19T08:52:53.244Z,1368.00
2018-08-19T08:53:53.251Z,1512.00
2018-08-19T08:54:53.239Z,1668.00
2018-08-19T08:55:53.210Z,1212.00
2018-08-19T08:56:53.198Z,1448.00
2018-08-19T08:57:53.191Z,1008.00
2018-08-19T08:58:53.198Z,836.00
2018-08-19T08:59:53.164Z,680.00
2018-08-19T09:00:53.151Z,592.00
2018-08-19T09:01:53.144Z,572.00
2018-08-19T09:02:53.146Z,676.00
2018-08-19T09:03:53.134Z,936.00
2018-08-19T09:04:53.105Z,752.00
2018-08-19T09:05:53.112Z,756.00
2018-08-19T09:06:53.081Z,884.00
2018-08-19T09:07:53.071Z,1080.00
2018-08-19T09:08:53.055Z,948.00
2018-08-19T09:09:53.048Z,768.00
2018-08-19T09:10:53.049Z,736.00
2018-08-19T09:11:53.039Z,740.00
2018-08-19T09:12:53.012Z,684.00
2018-08-19T09:13:53.031Z,676.00
2018-08-19T09:14:52.986Z,724.00
2018-08-19T09:15:52.987Z,836.00
2018-08-19T09:16:52.961Z,796.00
2018-08-19T09:17:52.951Z,800.00
2018-08-19T09:18:52.939Z,972.00
2018-08-19T09:19:52.929Z,1056.00
2018-08-19T09:20:52.932Z,1344.00
2018-08-19T09:21:52.904Z,1544.00
2018-08-19T09:22:52.959Z,1432.00
2018-08-19T09:23:52.881Z,1112.00
2018-08-19T09:24:52.868Z,976.00
2018-08-19T09:25:52.855Z,832.00
2018-08-19T09:26:52.857Z,880.00
2018-08-19T09:27:52.848Z,896.00
2018-08-19T09:28:52.820Z,772.00
2018-08-19T09:29:52.808Z,704.00
2018-08-19T09:30:52.792Z,712.00
2018-08-19T09:31:52.803Z,820.00
2018-08-19T09:32:52.816Z,1092.00
2018-08-19T09:33:52.765Z,1396.00
2018-08-19T09:34:52.748Z,1372.00
2018-08-19T09:35:52.740Z,1444.00
2018-08-19T09:36:52.724Z,1288.00
2018-08-19T09:37:52.734Z,1504.00
2018-08-19T09:38:52.719Z,2244.00
2018-08-19T09:39:52.687Z,1820.00
2018-08-19T09:40:52.756Z,1780.00
2018-08-19T09:41:52.667Z,1712.00
2018-08-19T09:42:52.657Z,2016.00
2018-08-19T09:43:52.658Z,1628.00
2018-08-19T09:44:52.632Z,1164.00
2018-08-19T09:45:52.619Z,1152.00
2018-08-19T09:46:52.609Z,1320.00
2018-08-19T09:47:52.734Z,1124.00
2018-08-19T09:48:52.602Z,828.00
2018-08-19T09:49:52.579Z,888.00
2018-08-19T09:50:52.563Z,1012.00
2018-08-19T09:51:52.548Z,976.00
2018-08-19T09:52:52.540Z,900.00
2018-08-19T09:53:52.531Z,888.00
2018-08-19T09:54:52.544Z,876.00
2018-08-19T09:55:52.508Z,964.00
2018-08-19T09:56:52.497Z,1052.00
2018-08-19T09:57:52.485Z,1040.00
2018-08-19T09:58:52.473Z,912.00
2018-08-19T09:59:52.474Z,1068.00
2018-08-19T10:00:52.450Z,1484.00
2018-08-19T10:01:52.441Z,1288.00
2018-08-19T10:02:52.428Z,1420.00
2018-08-19T10:03:52.417Z,1888.00
2018-08-19T10:04:52.436Z,1516.00
2018-08-19T10:05:52.395Z,1748.00
2018-08-19T10:06:52.385Z,2000.00
2018-08-19T10:07:52.408Z,2640.00
2018-08-19T10:08:52.362Z,4448.00
2018-08-19T10:09:52.366Z,2088.00
2018-08-19T10:10:52.342Z,1752.00
2018-08-19T10:11:52.331Z,1832.00
2018-08-19T10:12:52.316Z,1992.00
2018-08-19T10:13:52.307Z,13560.00
2018-08-19T10:14:52.298Z,2804.00
2018-08-19T10:15:52.297Z,6488.00
2018-08-19T10:16:52.273Z,2888.00
2018-08-19T10:17:52.284Z,2720.00
2018-08-19T10:18:52.251Z,2784.00
2018-08-19T10:19:52.242Z,2548.00
2018-08-19T10:20:52.252Z,5088.00
2018-08-19T10:21:52.223Z,5380.00
2018-08-19T10:22:52.221Z,4004.00
2018-08-19T10:23:52.200Z,14092.00
2018-08-19T10:24:52.189Z,13452.00
2018-08-19T10:26:13.191Z,13820.00
2018-08-19T10:26:52.167Z,4252.00
2018-08-19T10:27:52.180Z,5580.00
2018-08-19T10:28:52.154Z,13920.00
2018-08-19T10:29:52.143Z,9468.00
2018-08-19T10:30:52.136Z,3776.00
2018-08-19T10:31:52.147Z,3464.00
2018-08-19T10:32:52.118Z,3808.00
2018-08-19T10:33:52.111Z,12896.00
2018-08-19T10:34:52.095Z,13500.00
2018-08-19T10:35:52.093Z,12816.00
2018-08-19T10:36:52.080Z,9204.00
2018-08-19T10:37:52.095Z,3276.00
2018-08-19T10:38:52.083Z,14060.00
2018-08-19T10:39:52.064Z,3272.00
2018-08-19T10:40:52.060Z,14144.00
2018-08-19T10:41:52.046Z,8996.00
2018-08-19T10:42:52.036Z,10452.00
2018-08-19T10:43:52.047Z,4628.00
2018-08-19T10:44:52.026Z,11032.00
2018-08-19T10:45:52.017Z,11464.00
2018-08-19T10:46:52.008Z,10940.00
2018-08-19T10:47:52.006Z,11340.00
2018-08-19T10:48:52.000Z,7456.00
2018-08-19T10:49:52.006Z,5652.00
2018-08-19T10:50:51.981Z,10564.00
2018-08-19T10:51:51.981Z,9148.00
2018-08-19T10:52:51.987Z,8932.00
2018-08-19T10:53:51.968Z,8808.00
2018-08-19T10:54:51.961Z,9648.00
2018-08-19T10:55:51.957Z,8904.00
2018-08-19T10:56:51.949Z,10060.00
2018-08-19T10:57:51.956Z,9724.00
2018-08-19T10:58:51.939Z,2544.00
2018-08-19T10:59:51.962Z,3352.00
2018-08-19T11:00:51.927Z,4656.00
2018-08-19T11:01:51.923Z,3352.00
2018-08-19T11:02:51.928Z,9784.00
2018-08-19T11:03:51.912Z,9516.00
2018-08-19T11:04:51.904Z,9196.00
2018-08-19T11:05:51.896Z,8660.00
2018-08-19T11:06:51.892Z,9004.00
2018-08-19T11:07:51.901Z,9032.00
2018-08-19T11:08:51.884Z,8364.00
2018-08-19T11:09:51.875Z,4772.00
2018-08-19T11:10:51.869Z,8816.00
2018-08-19T11:11:51.864Z,8748.00
2018-08-19T11:12:51.875Z,8636.00
2018-08-19T11:13:51.853Z,8920.00
2018-08-19T11:14:51.848Z,8796.00
2018-08-19T11:15:51.843Z,9616.00
2018-08-19T11:16:51.837Z,9620.00
2018-08-19T11:17:53.145Z,8964.00
2018-08-19T11:18:51.847Z,7592.00
2018-08-19T11:19:51.829Z,6988.00
2018-08-19T11:20:51.846Z,8740.00
2018-08-19T11:21:51.819Z,7380.00
2018-08-19T11:22:51.816Z,6440.00
2018-08-19T11:23:51.826Z,6168.00
2018-08-19T11:24:51.807Z,6564.00
2018-08-19T11:25:51.867Z,6832.00
2018-08-19T11:26:51.807Z,5836.00
2018-08-19T11:27:51.794Z,5944.00
2018-08-19T11:28:51.802Z,5564.00
2018-08-19T11:29:51.782Z,5768.00
2018-08-19T11:30:51.784Z,5792.00
2018-08-19T11:31:51.775Z,5600.00
2018-08-19T11:32:51.767Z,5200.00
2018-08-19T11:33:51.807Z,5640.00
2018-08-19T11:34:51.775Z,5596.00
2018-08-19T11:35:51.754Z,5472.00
2018-08-19T11:36:51.748Z,5648.00
2018-08-19T11:37:51.754Z,5684.00
2018-08-19T11:38:51.755Z,5616.00
2018-08-19T11:39:51.733Z,6416.00
2018-08-19T11:40:51.733Z,6260.00
2018-08-19T11:41:51.742Z,7048.00
2018-08-19T11:42:51.720Z,6188.00
2018-08-19T11:43:51.728Z,6256.00
2018-08-19T11:44:51.728Z,6220.00
2018-08-19T11:45:51.722Z,7532.00
2018-08-19T11:46:51.718Z,7940.00
2018-08-19T11:47:51.700Z,7252.00
2018-08-19T11:48:51.733Z,7276.00
2018-08-19T11:49:51.691Z,8068.00
2018-08-19T11:50:51.678Z,6740.00
2018-08-19T11:51:51.697Z,7312.00
2018-08-19T11:52:51.671Z,6516.00
2018-08-19T11:53:51.667Z,6788.00
2018-08-19T11:54:51.663Z,6700.00
2018-08-19T11:55:51.661Z,6928.00
2018-08-19T11:56:51.656Z,8044.00
2018-08-19T11:57:51.666Z,7280.00
2018-08-19T11:58:51.648Z,7204.00
2018-08-19T11:59:51.648Z,7480.00
2018-08-19T12:00:51.637Z,7028.00
2018-08-19T12:01:51.635Z,7224.00
2018-08-19T12:02:51.706Z,6640.00
2018-08-19T12:03:51.640Z,6744.00
2018-08-19T12:04:51.618Z,6656.00
2018-08-19T12:05:51.620Z,6892.00
2018-08-19T12:06:51.625Z,5220.00
2018-08-19T12:07:51.613Z,5184.00
2018-08-19T12:08:51.628Z,5264.00
2018-08-19T12:09:51.602Z,6048.00
2018-08-19T12:10:51.602Z,6012.00
2018-08-19T12:11:51.594Z,6476.00
2018-08-19T12:12:51.596Z,8388.00
2018-08-19T12:13:51.601Z,8220.00
2018-08-19T12:14:51.609Z,8552.00
2018-08-19T12:15:51.590Z,7008.00
2018-08-19T12:16:51.616Z,7764.00
2018-08-19T12:17:51.577Z,7920.00
2018-08-19T12:18:51.574Z,1832.00
2018-08-19T12:19:51.588Z,8324.00
2018-08-19T12:20:51.568Z,8192.00
2018-08-19T12:21:51.562Z,8352.00
2018-08-19T12:22:51.580Z,8172.00
2018-08-19T12:23:51.556Z,8032.00
2018-08-19T12:24:51.574Z,7916.00
2018-08-19T12:25:51.577Z,7712.00
2018-08-19T12:26:51.551Z,7620.00
2018-08-19T12:27:51.637Z,7460.00
2018-08-19T12:28:51.543Z,7280.00
2018-08-19T12:29:51.562Z,7200.00
2018-08-19T12:30:51.538Z,6888.00
2018-08-19T12:31:51.536Z,5276.00
2018-08-19T12:32:51.533Z,7532.00
2018-08-19T12:33:51.534Z,7552.00
2018-08-19T12:34:51.541Z,7716.00
2018-08-19T12:35:51.538Z,6676.00
2018-08-19T12:36:51.519Z,6460.00
2018-08-19T12:37:51.513Z,6520.00